Погода Прибережьена неделю

Могилёвская область, Белоруссия

25 - 31 мая
  • 25мая
    Сегодня
    +11°
    +24°
    Ясно и безоблачно
    ВремяПогодаТемператураВлажностьДавлениеВетер, м/сВероятность осадков
    00:00Ясно и безоблачно+13°C50 %758 мм3.5 м/с2 %
    03:00Ясно и безоблачно+11°C55 %758 мм3.2 м/с2 %
    06:00Ясно и безоблачно+11°C61 %758 мм2.7 м/с2 %
    09:00Ясно и безоблачно+17°C59 %758 мм2.7 м/с2 %
    12:00Ясно и безоблачно+22°C46 %758 мм2.8 м/с2 %
    15:00Ясно и безоблачно+24°C38 %757 мм3.0 м/с2 %
    18:00Ясно и безоблачно+24°C38 %756 мм2.1 м/с2 %
    21:00Ясно и безоблачно+18°C67 %756 мм2.5 м/с2 %
  • 26мая
    Воскресенье
    +13°
    +26°
    Практически безоблачно
    ВремяПогодаТемператураВлажностьДавлениеВетер, м/сВероятность осадков
    00:00Ясно и безоблачно+14°C69 %756 мм2.8 м/с2 %
    03:00Ясно и безоблачно+12°C70 %755 мм2.7 м/с2 %
    06:00Облачно с прояснениями+13°C74 %756 мм1.1 м/с2 %
    09:00Облачно с прояснениями+19°C53 %756 мм0.9 м/с2 %
    12:00Практически безоблачно+23°C38 %756 мм2.2 м/с2 %
    15:00Практически безоблачно+25°C33 %755 мм1.1 м/с2 %
    18:00Ясно и безоблачно+25°C33 %754 мм1.0 м/с2 %
    21:00Ясно и безоблачно+19°C59 %754 мм1.9 м/с2 %
  • 27мая
    Понедельник
    +13°
    +26°
    Практически безоблачно
    ВремяПогодаТемператураВлажностьДавлениеВетер, м/сВероятность осадков
    00:00Ясно и безоблачно+15°C73 %754 мм1.9 м/с2 %
    03:00Ясно и безоблачно+13°C81 %754 мм1.9 м/с2 %
    06:00Ясно и безоблачно+14°C81 %755 мм1.5 м/с2 %
    09:00Ясно и безоблачно+21°C56 %755 мм1.2 м/с2 %
    12:00Практически безоблачно+25°C40 %755 мм2.6 м/с2 %
    15:00Практически безоблачно+25°C40 %754 мм2.7 м/с8 %
    18:00Ясно и безоблачно+25°C41 %753 мм2.0 м/с17 %
    21:00Ясно и безоблачно+20°C64 %753 мм1.4 м/с3 %
  • 28мая
    Вторник
    +13°
    +26°
    Практически безоблачно
    ВремяПогодаТемператураВлажностьДавлениеВетер, м/сВероятность осадков
    00:00Ясно и безоблачно+16°C79 %753 мм2.1 м/с2 %
    03:00Ясно и безоблачно+14°C81 %753 мм2.3 м/с2 %
    06:00Практически безоблачно+15°C83 %753 мм2.1 м/с2 %
    09:00Практически безоблачно+21°C64 %753 мм1.8 м/с2 %
    12:00Ясно и безоблачно+24°C49 %752 мм3.0 м/с4 %
    15:00Практически безоблачно+26°C48 %751 мм2.3 м/с18 %
    18:00Небольшая облачность, ливень+24°C69 %751 мм1.0 м/с39 %
    21:00Ясно и безоблачно+19°C84 %750 мм3.0 м/с8 %
  • 29мая
    Среда
    +14°
    +28°
    Практически безоблачно
    ВремяПогодаТемператураВлажностьДавлениеВетер, м/сВероятность осадков
    00:00Ясно и безоблачно+16°C90 %750 мм3.0 м/с2 %
    03:00Практически безоблачно+14°C89 %749 мм2.1 м/с2 %
    06:00Облачно с прояснениями+15°C78 %749 мм2.4 м/с2 %
    09:00Облачно с прояснениями+20°C61 %748 мм2.0 м/с2 %
    12:00Небольшая облачность+25°C41 %748 мм1.7 м/с9 %
    15:00Практически безоблачно+27°C30 %748 мм2.5 м/с18 %
    18:00Ясно и безоблачно+26°C35 %747 мм2.8 м/с16 %
    21:00Облачно с прояснениями+21°C55 %746 мм2.4 м/с6 %
Мы используем cookies
Соглашаюсь